createdAt,value
2019-05-26T00:00:12.436Z,10.53
2019-05-26T00:05:16.372Z,7.77
2019-05-26T00:10:20.231Z,9.63
2019-05-26T00:15:25.389Z,9.23
2019-05-26T00:20:29.242Z,8.40
2019-05-26T00:25:33.463Z,7.33
2019-05-26T00:30:37.414Z,7.53
2019-05-26T00:35:42.514Z,8.77
2019-05-26T00:40:47.289Z,7.70
2019-05-26T00:45:51.311Z,8.93
2019-05-26T00:50:55.402Z,9.67
2019-05-26T00:55:59.610Z,8.97
2019-05-26T01:01:04.276Z,9.80
2019-05-26T01:06:08.230Z,9.33
2019-05-26T01:11:12.790Z,10.13
2019-05-26T01:16:16.750Z,10.40
2019-05-26T01:21:21.018Z,9.27
2019-05-26T01:26:24.975Z,8.93
2019-05-26T01:31:29.122Z,9.60
2019-05-26T01:36:34.002Z,10.13
2019-05-26T01:41:38.309Z,10.70
2019-05-26T01:46:42.439Z,9.90
2019-05-26T01:51:46.643Z,10.67
2019-05-26T01:56:50.611Z,11.07
2019-05-26T02:01:58.355Z,10.00
2019-05-26T02:07:01.144Z,10.80
2019-05-26T02:12:06.051Z,11.47
2019-05-26T02:17:10.254Z,11.60
2019-05-26T02:22:14.125Z,11.17
2019-05-26T02:27:18.286Z,11.27
2019-05-26T02:32:22.482Z,11.20
2019-05-26T02:37:26.784Z,11.40
2019-05-26T02:42:30.774Z,10.80
2019-05-26T02:47:34.631Z,11.47
2019-05-26T02:52:38.840Z,11.30
2019-05-26T02:57:43.134Z,12.40
2019-05-26T03:02:47.110Z,11.25
2019-05-26T03:07:51.943Z,11.10
2019-05-26T03:12:56.114Z,10.70
2019-05-26T03:18:00.046Z,9.83
2019-05-26T03:23:06.078Z,10.90
2019-05-26T03:28:10.052Z,11.93
2019-05-26T03:33:14.248Z,10.53
2019-05-26T03:38:18.491Z,10.43
2019-05-26T03:43:23.022Z,10.43
2019-05-26T03:48:26.969Z,11.27
2019-05-26T03:53:31.407Z,11.30
2019-05-26T03:58:35.694Z,11.67
2019-05-26T04:03:40.057Z,11.57
2019-05-26T04:08:44.346Z,11.63
2019-05-26T04:13:48.626Z,11.57
2019-05-26T04:18:52.650Z,12.87
2019-05-26T04:23:56.555Z,12.10
2019-05-26T04:29:00.760Z,11.70
2019-05-26T04:34:04.905Z,11.47
2019-05-26T04:39:09.037Z,11.83
2019-05-26T04:44:12.918Z,13.33
2019-05-26T04:49:16.819Z,13.40
2019-05-26T04:54:21.017Z,12.23
2019-05-26T04:59:25.243Z,11.77
2019-05-26T05:04:29.120Z,13.37
2019-05-26T05:09:33.326Z,12.73
2019-05-26T05:14:37.524Z,13.20
2019-05-26T05:19:41.407Z,13.57
2019-05-26T05:24:45.538Z,14.40
2019-05-26T05:29:49.985Z,12.23
2019-05-26T05:34:54.281Z,14.33
2019-05-26T05:39:58.583Z,14.80
2019-05-26T05:45:02.749Z,14.63
2019-05-26T05:50:08.481Z,14.27
2019-05-26T05:55:22.373Z,12.23
2019-05-26T06:00:26.383Z,11.23
2019-05-26T06:05:30.253Z,11.40
2019-05-26T06:10:34.698Z,10.27
2019-05-26T06:15:38.924Z,9.27
2019-05-26T06:20:42.787Z,9.00
2019-05-26T06:25:47.235Z,9.90
2019-05-26T06:30:51.529Z,9.20
2019-05-26T06:35:55.492Z,9.30
2019-05-26T06:40:59.683Z,8.73
2019-05-26T06:46:03.870Z,8.17
2019-05-26T06:51:07.981Z,7.60
2019-05-26T06:56:12.181Z,7.20
2019-05-26T07:01:16.402Z,7.67
2019-05-26T07:06:20.259Z,6.67
2019-05-26T07:11:24.479Z,6.97
2019-05-26T07:16:37.922Z,7.83
2019-05-26T07:21:35.958Z,6.57
2019-05-26T07:26:40.159Z,6.40
2019-05-26T07:31:44.113Z,6.97
2019-05-26T07:36:47.974Z,6.30
2019-05-26T07:42:08.815Z,6.30
2019-05-26T07:46:58.032Z,7.13
2019-05-26T07:52:02.318Z,6.47
2019-05-26T07:57:07.673Z,5.70
2019-05-26T08:02:11.672Z,6.17
2019-05-26T08:07:16.180Z,6.17
2019-05-26T08:12:27.030Z,6.10
2019-05-26T08:17:26.249Z,5.93
2019-05-26T08:22:30.437Z,6.67
2019-05-26T08:27:34.301Z,4.90
2019-05-26T08:32:38.165Z,6.07
2019-05-26T08:37:42.347Z,4.90
2019-05-26T08:42:47.873Z,4.37
2019-05-26T08:47:53.373Z,3.23
2019-05-26T08:52:57.886Z,3.80
2019-05-26T08:58:02.182Z,3.20
2019-05-26T09:03:06.117Z,3.13
2019-05-26T09:08:10.301Z,3.07
2019-05-26T09:13:14.489Z,3.00
2019-05-26T09:18:18.687Z,2.90
2019-05-26T09:23:22.564Z,4.17
2019-05-26T09:28:26.400Z,2.80
2019-05-26T09:33:30.553Z,2.43
2019-05-26T09:38:34.645Z,2.60
2019-05-26T09:43:38.505Z,2.97
2019-05-26T09:48:42.389Z,2.13
2019-05-26T09:54:00.555Z,1.37
2019-05-26T09:58:52.227Z,1.67
2019-05-26T10:03:56.389Z,2.37
2019-05-26T10:09:00.250Z,2.43
2019-05-26T10:14:04.168Z,1.77
2019-05-26T10:19:08.069Z,1.70
2019-05-26T10:24:12.261Z,1.80
2019-05-26T10:29:16.200Z,2.33
2019-05-26T10:34:20.054Z,2.00
2019-05-26T10:39:23.918Z,2.57
2019-05-26T10:44:27.775Z,2.27
2019-05-26T10:49:31.628Z,2.23
2019-05-26T10:54:35.902Z,1.70
2019-05-26T10:59:39.854Z,1.70
2019-05-26T11:04:44.026Z,2.23
2019-05-26T11:09:47.910Z,1.50
2019-05-26T11:14:51.809Z,1.93
2019-05-26T11:19:55.671Z,1.70
2019-05-26T11:24:59.530Z,1.60
2019-05-26T11:30:05.922Z,1.80
2019-05-26T11:35:10.533Z,2.17
2019-05-26T11:40:14.849Z,1.73
2019-05-26T11:45:18.869Z,2.07
2019-05-26T11:50:22.860Z,4.37
2019-05-26T11:55:27.853Z,1.90
2019-05-26T12:00:31.984Z,2.47
2019-05-26T12:05:35.837Z,1.70
2019-05-26T12:10:39.697Z,1.57
2019-05-26T12:15:43.548Z,1.63
2019-05-26T12:20:47.751Z,2.57
2019-05-26T12:25:52.015Z,3.70
2019-05-26T12:30:56.305Z,2.00
2019-05-26T12:36:00.245Z,1.93
2019-05-26T12:41:04.171Z,3.00
2019-05-26T12:46:08.324Z,1.90
2019-05-26T12:51:12.358Z,1.70
2019-05-26T12:56:16.218Z,2.03
2019-05-26T13:01:20.472Z,1.40
2019-05-26T13:06:24.417Z,1.70
2019-05-26T13:11:28.273Z,2.40
2019-05-26T13:16:35.644Z,1.27
2019-05-26T13:21:37.685Z,1.90
2019-05-26T13:26:41.777Z,1.90
2019-05-26T13:31:45.629Z,1.60
2019-05-26T13:36:49.748Z,1.87
2019-05-26T13:41:53.929Z,1.57
2019-05-26T13:46:57.877Z,1.50
2019-05-26T13:52:02.065Z,1.60
2019-05-26T13:57:06.032Z,1.80
2019-05-26T14:02:10.468Z,1.93
2019-05-26T14:07:14.420Z,1.63
2019-05-26T14:12:18.555Z,2.50
2019-05-26T14:17:23.993Z,1.60
2019-05-26T14:22:28.481Z,2.20
2019-05-26T14:27:34.042Z,1.73
2019-05-26T14:32:37.978Z,1.70
2019-05-26T14:37:41.840Z,3.23
2019-05-26T14:42:46.788Z,1.90
2019-05-26T14:47:50.638Z,2.17
2019-05-26T14:52:54.957Z,1.90
2019-05-26T14:58:14.465Z,2.00
2019-05-26T15:03:04.921Z,2.43
2019-05-26T15:08:08.788Z,2.00
2019-05-26T15:13:12.625Z,2.07
2019-05-26T15:18:16.495Z,2.10
2019-05-26T15:23:20.652Z,2.10
2019-05-26T15:28:24.509Z,2.00
2019-05-26T15:33:28.366Z,2.70
2019-05-26T15:38:42.492Z,2.40
2019-05-26T15:43:38.257Z,2.23
2019-05-26T15:48:42.122Z,2.23
2019-05-26T15:53:45.990Z,2.63
2019-05-26T15:58:50.481Z,4.50
2019-05-26T16:03:54.441Z,2.63
2019-05-26T16:08:58.550Z,2.40
2019-05-26T16:14:02.488Z,2.70
2019-05-26T16:19:06.450Z,3.67
2019-05-26T16:24:10.320Z,2.70
2019-05-26T16:29:14.493Z,2.60
2019-05-26T16:34:18.768Z,2.60
2019-05-26T16:39:36.063Z,2.73
2019-05-26T16:44:29.049Z,3.00
2019-05-26T16:49:33.017Z,2.07
2019-05-26T16:54:36.879Z,2.30
2019-05-26T16:59:40.787Z,2.30
2019-05-26T17:04:45.338Z,2.40
2019-05-26T17:09:49.876Z,2.43
2019-05-26T17:14:54.062Z,2.53
2019-05-26T17:19:57.923Z,2.93
2019-05-26T17:25:02.120Z,2.47
2019-05-26T17:30:07.237Z,2.70
2019-05-26T17:35:11.233Z,3.03
2019-05-26T17:40:15.266Z,2.60
2019-05-26T17:45:19.203Z,2.60
2019-05-26T17:50:23.701Z,2.60
2019-05-26T17:55:27.753Z,2.30
2019-05-26T18:00:31.664Z,2.17
2019-05-26T18:05:35.887Z,2.33
2019-05-26T18:10:39.839Z,2.63
2019-05-26T18:15:44.041Z,2.60
2019-05-26T18:20:49.491Z,2.63
2019-05-26T18:25:54.016Z,2.30
2019-05-26T18:30:57.956Z,2.10
2019-05-26T18:36:01.816Z,2.37
2019-05-26T18:41:06.082Z,2.27
2019-05-26T18:46:10.358Z,3.23
2019-05-26T18:51:14.978Z,2.57
2019-05-26T18:56:18.926Z,2.20
2019-05-26T19:01:22.788Z,3.17
2019-05-26T19:06:26.654Z,2.70
2019-05-26T19:11:30.536Z,2.23
2019-05-26T19:16:34.444Z,2.40
2019-05-26T19:21:38.293Z,3.83
2019-05-26T19:26:42.500Z,4.20
2019-05-26T19:31:46.437Z,4.60
2019-05-26T19:36:50.517Z,4.47
2019-05-26T19:41:54.373Z,3.40
2019-05-26T19:46:58.521Z,2.70
2019-05-26T19:52:02.377Z,2.40
2019-05-26T19:57:06.244Z,2.50
2019-05-26T20:02:18.484Z,2.10
2019-05-26T20:07:17.153Z,2.53
2019-05-26T20:12:21.342Z,2.40
2019-05-26T20:17:25.294Z,2.80
2019-05-26T20:22:29.162Z,2.60
2019-05-26T20:27:33.026Z,2.30
2019-05-26T20:32:36.888Z,2.27
2019-05-26T20:37:41.089Z,2.90
2019-05-26T20:42:45.226Z,2.83
2019-05-26T20:47:49.103Z,2.23
2019-05-26T20:52:53.684Z,2.30
2019-05-26T20:58:02.374Z,2.50
2019-05-26T21:03:06.857Z,2.50
2019-05-26T21:08:10.800Z,2.53
2019-05-26T21:13:14.654Z,2.67
2019-05-26T21:18:18.509Z,2.33
2019-05-26T21:23:22.905Z,2.60
2019-05-26T21:28:26.871Z,2.70
2019-05-26T21:33:31.059Z,3.23
2019-05-26T21:38:35.345Z,4.50
2019-05-26T21:43:39.289Z,3.70
2019-05-26T21:48:43.156Z,4.80
2019-05-26T21:53:47.276Z,4.97
2019-05-26T21:58:51.465Z,4.40
2019-05-26T22:03:55.411Z,5.80
2019-05-26T22:09:00.678Z,5.73
2019-05-26T22:14:05.794Z,4.97
2019-05-26T22:19:10.678Z,5.50
2019-05-26T22:24:14.592Z,7.73
2019-05-26T22:29:18.840Z,4.90
2019-05-26T22:34:23.117Z,4.90
2019-05-26T22:39:27.076Z,5.23
2019-05-26T22:44:31.286Z,4.90
2019-05-26T22:49:35.688Z,5.93
2019-05-26T22:54:40.038Z,6.67
2019-05-26T22:59:46.745Z,5.37
2019-05-26T23:04:51.003Z,7.13
2019-05-26T23:09:54.865Z,6.67
2019-05-26T23:14:59.358Z,6.23
2019-05-26T23:20:05.674Z,6.97
2019-05-26T23:25:11.471Z,6.07
2019-05-26T23:30:16.162Z,6.07
2019-05-26T23:35:20.121Z,6.67
2019-05-26T23:40:24.344Z,5.33
2019-05-26T23:45:28.200Z,6.33
2019-05-26T23:50:32.385Z,5.50
2019-05-26T23:55:36.324Z,6.47
